KHMN/HMN METAR and TAF weather

Enter ICAO airport designator
Station Type Date Time Source
KHMN METAR 2021/09/20 03:58 UTC NOAA

KHMN 200358Z AUTO 18007KT 10SM CLR 26/08 A2998 RMK AO2 SLP079 T02580083 $


Station Type Date Time Source
KHMN Decoded METAR 2021/09/20 03:58 UTC NOAA

Holloman Air Force Base, NM, United States (KHMN) 32-51N 106-06W 1248M
Sep 19, 2021 - 11:58 PM EDT / 2021.09.20 0358 UTC
Wind: from the S (180 degrees) at 8 MPH (7 KT):0
Visibility: 10 mile(s):0
Sky conditions: clear
Temperature: 78.4 F (25.8 C)
Dew Point: 46.9 F (8.3 C)
Relative Humidity: 32%
Pressure (altimeter): 29.98 in. Hg (1015 hPa)
ob: KHMN 200358Z AUTO 18007KT 10SM CLR 26/08 A2998 RMK AO2 SLP079 T02580083
cycle: 4

Station Type Date Time Source
KHMN TAF 2021/09/17 17:06 UTC NOAA

TAF KHMN 171700Z 1717/1823 VRB06KT 9999 FEW130 QNH3012INS
BECMG 1720/1721 34012G18KT 9999 SCT130 SCT250 QNH3006INS
BECMG 1800/1801 VRB06KT 9999 FEW130 FEW250 QNH3008INS
TEMPO 1806/1811 07012G20KT
BECMG 1817/1818 16010G15KT 9999 FEW120 QNH3015INS TX34/1722Z TN16/1813Z

Example: see airport list